sensor_id;sensor_type;location;lat;lon;timestamp;pressure;altitude;pressure_sealevel;temperature;humidity
18850;BME280;4989;48.772;9.154;2023-04-25T00:02:45;97400.19;;;10.43;78.88
18850;BME280;4989;48.772;9.154;2023-04-25T00:07:49;97390.28;;;10.24;79.74
18850;BME280;4989;48.772;9.154;2023-04-25T00:12:51;97397.53;;;10.14;81.24
18850;BME280;4989;48.772;9.154;2023-04-25T00:17:53;97388.56;;;10.55;79.87
18850;BME280;4989;48.772;9.154;2023-04-25T00:22:56;97382.72;;;10.44;79.15
18850;BME280;4989;48.772;9.154;2023-04-25T00:27:58;97392.00;;;10.18;80.54
18850;BME280;4989;48.772;9.154;2023-04-25T00:33:00;97389.06;;;9.99;81.29
18850;BME280;4989;48.772;9.154;2023-04-25T00:38:02;97382.53;;;10.09;80.30
18850;BME280;4989;48.772;9.154;2023-04-25T00:43:05;97379.47;;;9.95;80.96
18850;BME280;4989;48.772;9.154;2023-04-25T00:48:07;97377.38;;;9.86;81.60
18850;BME280;4989;48.772;9.154;2023-04-25T00:53:09;97367.41;;;9.83;81.15
18850;BME280;4989;48.772;9.154;2023-04-25T00:58:11;97365.88;;;9.82;81.54
18850;BME280;4989;48.772;9.154;2023-04-25T01:03:15;97369.22;;;9.73;82.54
18850;BME280;4989;48.772;9.154;2023-04-25T01:08:24;97355.44;;;9.68;83.46
18850;BME280;4989;48.772;9.154;2023-04-25T01:13:30;97353.91;;;9.67;83.85
18850;BME280;4989;48.772;9.154;2023-04-25T01:18:33;97354.56;;;9.71;84.52
18850;BME280;4989;48.772;9.154;2023-04-25T01:23:37;97342.16;;;9.99;83.90
18850;BME280;4989;48.772;9.154;2023-04-25T01:28:40;97342.13;;;10.24;82.76
18850;BME280;4989;48.772;9.154;2023-04-25T01:33:45;97345.81;;;9.92;83.66
18850;BME280;4989;48.772;9.154;2023-04-25T01:38:47;97346.00;;;9.72;84.80
18850;BME280;4989;48.772;9.154;2023-04-25T01:43:50;97339.63;;;9.50;86.35
18850;BME280;4989;48.772;9.154;2023-04-25T01:48:53;97353.00;;;9.44;86.79
18850;BME280;4989;48.772;9.154;2023-04-25T01:53:56;97338.09;;;9.36;87.54
18850;BME280;4989;48.772;9.154;2023-04-25T01:59:03;97347.75;;;9.37;87.82
18850;BME280;4989;48.772;9.154;2023-04-25T02:04:05;97344.25;;;9.24;88.47
18850;BME280;4989;48.772;9.154;2023-04-25T02:09:11;97345.22;;;9.30;89.04
18850;BME280;4989;48.772;9.154;2023-04-25T02:14:18;97348.81;;;9.27;89.90
18850;BME280;4989;48.772;9.154;2023-04-25T02:19:38;97343.38;;;9.27;90.76
18850;BME280;4989;48.772;9.154;2023-04-25T02:24:41;97330.06;;;9.32;90.63
18850;BME280;4989;48.772;9.154;2023-04-25T02:29:43;97331.47;;;9.37;90.99
18850;BME280;4989;48.772;9.154;2023-04-25T02:34:45;97332.31;;;9.63;88.51
18850;BME280;4989;48.772;9.154;2023-04-25T02:39:47;97331.44;;;9.53;89.87
18850;BME280;4989;48.772;9.154;2023-04-25T02:44:49;97324.84;;;9.80;87.82
18850;BME280;4989;48.772;9.154;2023-04-25T02:49:51;97322.91;;;9.38;89.67
18850;BME280;4989;48.772;9.154;2023-04-25T02:54:54;97318.84;;;9.17;88.60
18850;BME280;4989;48.772;9.154;2023-04-25T02:59:56;97321.09;;;9.19;88.96
18850;BME280;4989;48.772;9.154;2023-04-25T03:04:58;97325.44;;;9.16;88.23
18850;BME280;4989;48.772;9.154;2023-04-25T03:10:01;97324.81;;;9.25;87.89
18850;BME280;4989;48.772;9.154;2023-04-25T03:15:06;97320.34;;;9.18;86.97
18850;BME280;4989;48.772;9.154;2023-04-25T03:20:10;97318.34;;;9.06;88.29
18850;BME280;4989;48.772;9.154;2023-04-25T03:25:13;97300.09;;;8.94;88.64
18850;BME280;4989;48.772;9.154;2023-04-25T03:30:15;97302.59;;;9.01;87.93
18850;BME280;4989;48.772;9.154;2023-04-25T03:35:19;97310.72;;;9.01;88.05
18850;BME280;4989;48.772;9.154;2023-04-25T03:40:21;97309.03;;;9.07;87.96
18850;BME280;4989;48.772;9.154;2023-04-25T03:46:01;97322.06;;;9.12;89.22
18850;BME280;4989;48.772;9.154;2023-04-25T03:51:04;97312.44;;;8.95;90.09
18850;BME280;4989;48.772;9.154;2023-04-25T03:56:09;97314.63;;;9.00;90.05
18850;BME280;4989;48.772;9.154;2023-04-25T04:01:14;97308.81;;;8.85;89.96
18850;BME280;4989;48.772;9.154;2023-04-25T04:06:16;97308.72;;;8.89;89.95
18850;BME280;4989;48.772;9.154;2023-04-25T04:11:22;97309.53;;;8.73;90.93
18850;BME280;4989;48.772;9.154;2023-04-25T04:16:25;97312.63;;;8.88;90.34
18850;BME280;4989;48.772;9.154;2023-04-25T04:21:27;97315.69;;;8.90;90.41
18850;BME280;4989;48.772;9.154;2023-04-25T04:26:29;97322.31;;;8.73;91.58
18850;BME280;4989;48.772;9.154;2023-04-25T04:31:50;97309.97;;;8.71;91.77
18850;BME280;4989;48.772;9.154;2023-04-25T04:36:52;97326.38;;;8.64;92.35
18850;BME280;4989;48.772;9.154;2023-04-25T04:41:55;97332.66;;;8.78;92.82
18850;BME280;4989;48.772;9.154;2023-04-25T04:47:15;97326.69;;;8.83;92.27
18850;BME280;4989;48.772;9.154;2023-04-25T04:52:34;97333.59;;;9.00;91.67
18850;BME280;4989;48.772;9.154;2023-04-25T04:57:54;97342.38;;;9.21;89.78
18850;BME280;4989;48.772;9.154;2023-04-25T05:03:15;97352.06;;;9.05;91.20
18850;BME280;4989;48.772;9.154;2023-04-25T05:08:36;97350.69;;;9.13;91.38
18850;BME280;4989;48.772;9.154;2023-04-25T05:13:58;97339.34;;;9.60;89.48
18850;BME280;4989;48.772;9.154;2023-04-25T05:19:35;97340.44;;;10.30;84.68
18850;BME280;4989;48.772;9.154;2023-04-25T05:25:04;97349.03;;;10.29;85.55
18850;BME280;4989;48.772;9.154;2023-04-25T05:30:28;97348.63;;;11.13;87.74
18850;BME280;4989;48.772;9.154;2023-04-25T05:35:44;97346.78;;;11.88;77.03
18850;BME280;4989;48.772;9.154;2023-04-25T05:40:46;97351.09;;;11.99;91.91
18850;BME280;4989;48.772;9.154;2023-04-25T05:46:07;97353.88;;;13.35;100.00
18850;BME280;4989;48.772;9.154;2023-04-25T05:51:28;97359.56;;;13.73;77.59
18850;BME280;4989;48.772;9.154;2023-04-25T05:57:00;97353.50;;;10.83;74.35
18850;BME280;4989;48.772;9.154;2023-04-25T06:02:05;97351.94;;;10.47;76.42
18850;BME280;4989;48.772;9.154;2023-04-25T06:07:10;97359.91;;;10.29;77.05
18850;BME280;4989;48.772;9.154;2023-04-25T06:12:12;97361.22;;;9.82;81.67
18850;BME280;4989;48.772;9.154;2023-04-25T06:17:14;97358.50;;;9.95;82.30
18850;BME280;4989;48.772;9.154;2023-04-25T06:22:16;97356.63;;;9.67;83.62
18850;BME280;4989;48.772;9.154;2023-04-25T06:27:19;97348.16;;;10.32;84.81
18850;BME280;4989;48.772;9.154;2023-04-25T06:32:21;97345.06;;;10.55;80.00
18850;BME280;4989;48.772;9.154;2023-04-25T06:37:24;97341.56;;;9.66;88.38
18850;BME280;4989;48.772;9.154;2023-04-25T06:42:26;97358.91;;;9.26;99.55
18850;BME280;4989;48.772;9.154;2023-04-25T06:47:33;97359.31;;;9.25;100.00
18850;BME280;4989;48.772;9.154;2023-04-25T06:52:36;97343.19;;;9.34;100.00
18850;BME280;4989;48.772;9.154;2023-04-25T06:57:38;97357.31;;;9.42;96.73
18850;BME280;4989;48.772;9.154;2023-04-25T07:03:16;97350.69;;;9.72;96.20
18850;BME280;4989;48.772;9.154;2023-04-25T07:08:19;97351.72;;;9.61;97.08
18850;BME280;4989;48.772;9.154;2023-04-25T07:13:22;97354.97;;;9.27;100.00
18850;BME280;4989;48.772;9.154;2023-04-25T07:18:25;97370.28;;;9.05;100.00
18850;BME280;4989;48.772;9.154;2023-04-25T07:23:27;97367.75;;;8.98;100.00
18850;BME280;4989;48.772;9.154;2023-04-25T07:28:31;97369.16;;;9.18;100.00
18850;BME280;4989;48.772;9.154;2023-04-25T07:33:33;97366.41;;;9.35;100.00
18850;BME280;4989;48.772;9.154;2023-04-25T07:38:36;97380.59;;;9.26;100.00
18850;BME280;4989;48.772;9.154;2023-04-25T07:43:38;97379.34;;;9.14;100.00
18850;BME280;4989;48.772;9.154;2023-04-25T07:48:40;97392.88;;;8.98;100.00
18850;BME280;4989;48.772;9.154;2023-04-25T07:53:42;97397.22;;;9.12;100.00
18850;BME280;4989;48.772;9.154;2023-04-25T07:58:48;97404.53;;;8.99;100.00
18850;BME280;4989;48.772;9.154;2023-04-25T08:03:53;97403.84;;;8.78;100.00
18850;BME280;4989;48.772;9.154;2023-04-25T08:09:01;97412.72;;;8.62;100.00
18850;BME280;4989;48.772;9.154;2023-04-25T08:14:11;97416.78;;;8.70;100.00
18850;BME280;4989;48.772;9.154;2023-04-25T08:19:15;97421.19;;;8.81;100.00
18850;BME280;4989;48.772;9.154;2023-04-25T08:24:19;97423.81;;;9.01;100.00
18850;BME280;4989;48.772;9.154;2023-04-25T08:29:21;97436.63;;;8.84;100.00
18850;BME280;4989;48.772;9.154;2023-04-25T08:34:26;97436.53;;;8.87;100.00
18850;BME280;4989;48.772;9.154;2023-04-25T08:39:29;97448.47;;;9.06;100.00
18850;BME280;4989;48.772;9.154;2023-04-25T08:45:08;97451.34;;;9.15;100.00
18850;BME280;4989;48.772;9.154;2023-04-25T08:50:17;97453.53;;;9.21;100.00
18850;BME280;4989;48.772;9.154;2023-04-25T08:55:22;97458.47;;;8.93;100.00
18850;BME280;4989;48.772;9.154;2023-04-25T09:00:31;97470.31;;;8.99;100.00
18850;BME280;4989;48.772;9.154;2023-04-25T09:05:34;97473.72;;;8.87;100.00
18850;BME280;4989;48.772;9.154;2023-04-25T09:10:38;97481.56;;;8.81;100.00
18850;BME280;4989;48.772;9.154;2023-04-25T09:15:54;97486.63;;;8.79;100.00
18850;BME280;4989;48.772;9.154;2023-04-25T09:21:11;97493.44;;;8.87;100.00
18850;BME280;4989;48.772;9.154;2023-04-25T09:26:20;97504.75;;;8.82;100.00
18850;BME280;4989;48.772;9.154;2023-04-25T09:31:24;97511.50;;;8.74;100.00
18850;BME280;4989;48.772;9.154;2023-04-25T09:36:34;97520.63;;;9.00;100.00
18850;BME280;4989;48.772;9.154;2023-04-25T09:41:59;97525.19;;;9.03;100.00
18850;BME280;4989;48.772;9.154;2023-04-25T09:47:01;97524.03;;;9.53;100.00
18850;BME280;4989;48.772;9.154;2023-04-25T09:52:06;97536.72;;;9.40;100.00
18850;BME280;4989;48.772;9.154;2023-04-25T09:57:23;97541.09;;;8.85;100.00
18850;BME280;4989;48.772;9.154;2023-04-25T10:02:27;97553.06;;;8.67;100.00
18850;BME280;4989;48.772;9.154;2023-04-25T10:07:37;97554.22;;;8.86;100.00
18850;BME280;4989;48.772;9.154;2023-04-25T10:12:44;97567.34;;;8.88;100.00
18850;BME280;4989;48.772;9.154;2023-04-25T10:17:49;97566.41;;;9.31;100.00
18850;BME280;4989;48.772;9.154;2023-04-25T10:22:54;97576.13;;;9.28;100.00
18850;BME280;4989;48.772;9.154;2023-04-25T10:28:00;97585.75;;;8.97;100.00
18850;BME280;4989;48.772;9.154;2023-04-25T10:33:16;97594.53;;;9.21;100.00
18850;BME280;4989;48.772;9.154;2023-04-25T10:38:19;97607.25;;;9.73;100.00
18850;BME280;4989;48.772;9.154;2023-04-25T10:48:34;97622.03;;;8.83;100.00
18850;BME280;4989;48.772;9.154;2023-04-25T10:53:36;97628.63;;;10.78;100.00
18850;BME280;4989;48.772;9.154;2023-04-25T10:58:43;97634.56;;;12.26;100.00
18850;BME280;4989;48.772;9.154;2023-04-25T11:03:46;97649.25;;;12.86;100.00
18850;BME280;4989;48.772;9.154;2023-04-25T11:08:52;97651.03;;;12.79;100.00
18850;BME280;4989;48.772;9.154;2023-04-25T11:13:55;97651.38;;;13.13;100.00
18850;BME280;4989;48.772;9.154;2023-04-25T11:18:58;97660.59;;;13.59;100.00
18850;BME280;4989;48.772;9.154;2023-04-25T11:24:01;97651.38;;;13.35;97.34
18850;BME280;4989;48.772;9.154;2023-04-25T11:29:03;97652.91;;;12.92;95.51
18850;BME280;4989;48.772;9.154;2023-04-25T11:34:06;97659.28;;;12.67;89.82
18850;BME280;4989;48.772;9.154;2023-04-25T11:39:08;97669.06;;;10.76;95.33
18850;BME280;4989;48.772;9.154;2023-04-25T11:44:10;97669.06;;;10.76;100.00
18850;BME280;4989;48.772;9.154;2023-04-25T11:49:16;97664.94;;;10.55;100.00
18850;BME280;4989;48.772;9.154;2023-04-25T11:54:20;97671.81;;;9.29;100.00
18850;BME280;4989;48.772;9.154;2023-04-25T11:59:24;97676.53;;;9.25;100.00
18850;BME280;4989;48.772;9.154;2023-04-25T12:04:30;97684.19;;;9.30;100.00
18850;BME280;4989;48.772;9.154;2023-04-25T12:09:34;97677.66;;;10.74;100.00
18850;BME280;4989;48.772;9.154;2023-04-25T12:14:36;97688.16;;;10.43;100.00
18850;BME280;4989;48.772;9.154;2023-04-25T12:19:39;97689.16;;;10.49;100.00
18850;BME280;4989;48.772;9.154;2023-04-25T12:24:44;97689.34;;;10.09;100.00
18850;BME280;4989;48.772;9.154;2023-04-25T12:29:57;97691.91;;;10.00;100.00
18850;BME280;4989;48.772;9.154;2023-04-25T12:34:59;97696.31;;;9.78;100.00
18850;BME280;4989;48.772;9.154;2023-04-25T12:40:02;97688.13;;;9.61;100.00
18850;BME280;4989;48.772;9.154;2023-04-25T12:45:06;97698.53;;;9.10;100.00
18850;BME280;4989;48.772;9.154;2023-04-25T12:50:09;97697.50;;;9.93;100.00
18850;BME280;4989;48.772;9.154;2023-04-25T12:55:12;97698.81;;;10.67;100.00
18850;BME280;4989;48.772;9.154;2023-04-25T13:00:14;97698.19;;;10.14;100.00
18850;BME280;4989;48.772;9.154;2023-04-25T13:05:19;97701.66;;;11.05;100.00
18850;BME280;4989;48.772;9.154;2023-04-25T13:10:22;97705.41;;;11.37;98.66
18850;BME280;4989;48.772;9.154;2023-04-25T13:15:24;97695.03;;;12.47;95.32
18850;BME280;4989;48.772;9.154;2023-04-25T13:20:26;97702.16;;;13.10;96.14
18850;BME280;4989;48.772;9.154;2023-04-25T13:25:29;97693.16;;;12.78;91.31
18850;BME280;4989;48.772;9.154;2023-04-25T13:30:31;97704.91;;;11.80;97.46
18850;BME280;4989;48.772;9.154;2023-04-25T13:35:36;97697.19;;;13.40;100.00
18850;BME280;4989;48.772;9.154;2023-04-25T13:40:38;97702.41;;;13.87;95.20
18850;BME280;4989;48.772;9.154;2023-04-25T13:45:40;97698.44;;;14.47;90.26
18850;BME280;4989;48.772;9.154;2023-04-25T13:50:43;97709.72;;;14.58;89.39
18850;BME280;4989;48.772;9.154;2023-04-25T13:55:45;97709.38;;;13.04;90.23
18850;BME280;4989;48.772;9.154;2023-04-25T14:00:48;97707.97;;;13.21;92.49
18850;BME280;4989;48.772;9.154;2023-04-25T14:05:50;97712.19;;;13.35;85.68
18850;BME280;4989;48.772;9.154;2023-04-25T14:10:53;97713.91;;;13.20;96.52
18850;BME280;4989;48.772;9.154;2023-04-25T14:15:55;97708.66;;;16.53;70.28
18850;BME280;4989;48.772;9.154;2023-04-25T14:20:57;97699.22;;;14.84;72.88
18850;BME280;4989;48.772;9.154;2023-04-25T14:25:59;97701.09;;;15.48;71.21
18850;BME280;4989;48.772;9.154;2023-04-25T14:31:02;97707.97;;;15.86;66.84
18850;BME280;4989;48.772;9.154;2023-04-25T14:36:05;97708.75;;;14.43;70.22
18850;BME280;4989;48.772;9.154;2023-04-25T14:41:07;97710.56;;;14.37;74.67
18850;BME280;4989;48.772;9.154;2023-04-25T14:46:10;97716.75;;;13.16;75.31
18850;BME280;4989;48.772;9.154;2023-04-25T14:51:13;97728.09;;;12.23;83.45
18850;BME280;4989;48.772;9.154;2023-04-25T14:56:15;97720.59;;;12.02;85.27
18850;BME280;4989;48.772;9.154;2023-04-25T15:01:18;97716.16;;;13.21;79.11
18850;BME280;4989;48.772;9.154;2023-04-25T15:06:22;97725.97;;;14.62;69.67
18850;BME280;4989;48.772;9.154;2023-04-25T15:11:28;97718.25;;;15.58;68.34
18850;BME280;4989;48.772;9.154;2023-04-25T15:16:30;97723.91;;;15.97;67.35
18850;BME280;4989;48.772;9.154;2023-04-25T15:21:33;97716.41;;;14.57;72.63
18850;BME280;4989;48.772;9.154;2023-04-25T15:26:35;97719.06;;;14.39;75.91
18850;BME280;4989;48.772;9.154;2023-04-25T15:31:38;97720.00;;;14.36;74.96
18850;BME280;4989;48.772;9.154;2023-04-25T15:36:40;97725.78;;;14.38;77.72
18850;BME280;4989;48.772;9.154;2023-04-25T15:41:42;97732.69;;;14.11;79.21
18850;BME280;4989;48.772;9.154;2023-04-25T15:46:44;97739.34;;;14.01;75.20
18850;BME280;4989;48.772;9.154;2023-04-25T15:51:47;97729.00;;;13.96;75.28
18850;BME280;4989;48.772;9.154;2023-04-25T15:56:50;97740.22;;;13.89;80.00
18850;BME280;4989;48.772;9.154;2023-04-25T16:01:52;97741.94;;;13.73;79.33
18850;BME280;4989;48.772;9.154;2023-04-25T16:06:54;97739.44;;;13.57;80.31
18850;BME280;4989;48.772;9.154;2023-04-25T16:11:57;97738.00;;;13.43;82.18
18850;BME280;4989;48.772;9.154;2023-04-25T16:16:59;97741.63;;;13.40;80.05
18850;BME280;4989;48.772;9.154;2023-04-25T16:22:02;97744.66;;;13.20;78.86
18850;BME280;4989;48.772;9.154;2023-04-25T16:27:04;97743.41;;;13.12;83.18
18850;BME280;4989;48.772;9.154;2023-04-25T16:32:06;97747.34;;;13.33;79.09
18850;BME280;4989;48.772;9.154;2023-04-25T16:37:09;97745.44;;;13.43;76.55
18850;BME280;4989;48.772;9.154;2023-04-25T16:42:12;97758.66;;;13.44;82.03
18850;BME280;4989;48.772;9.154;2023-04-25T16:47:17;97754.63;;;13.58;77.92
18850;BME280;4989;48.772;9.154;2023-04-25T16:52:21;97765.50;;;13.49;78.65
18850;BME280;4989;48.772;9.154;2023-04-25T16:57:24;97758.84;;;13.50;77.49
18850;BME280;4989;48.772;9.154;2023-04-25T17:02:26;97761.81;;;13.43;81.82
18850;BME280;4989;48.772;9.154;2023-04-25T17:07:29;97771.50;;;13.35;79.37
18850;BME280;4989;48.772;9.154;2023-04-25T17:12:32;97779.53;;;13.16;84.02
18850;BME280;4989;48.772;9.154;2023-04-25T17:17:34;97785.75;;;13.04;82.29
18850;BME280;4989;48.772;9.154;2023-04-25T17:22:37;97783.03;;;13.04;80.69
18850;BME280;4989;48.772;9.154;2023-04-25T17:27:39;97789.84;;;12.99;82.97
18850;BME280;4989;48.772;9.154;2023-04-25T17:32:42;97798.41;;;12.76;84.89
18850;BME280;4989;48.772;9.154;2023-04-25T17:37:44;97825.34;;;12.87;86.13
18850;BME280;4989;48.772;9.154;2023-04-25T17:42:46;97819.47;;;12.75;90.14
18850;BME280;4989;48.772;9.154;2023-04-25T17:47:48;97830.66;;;12.30;89.38
18850;BME280;4989;48.772;9.154;2023-04-25T17:52:50;97842.13;;;12.37;92.48
18850;BME280;4989;48.772;9.154;2023-04-25T17:57:54;97853.44;;;12.23;99.65
18850;BME280;4989;48.772;9.154;2023-04-25T18:02:56;97852.75;;;12.06;100.00
18850;BME280;4989;48.772;9.154;2023-04-25T18:07:59;97847.72;;;11.92;100.00
18850;BME280;4989;48.772;9.154;2023-04-25T18:13:02;97873.72;;;11.80;100.00
18850;BME280;4989;48.772;9.154;2023-04-25T18:18:04;97871.31;;;11.82;100.00
18850;BME280;4989;48.772;9.154;2023-04-25T18:23:15;97879.34;;;11.73;100.00
18850;BME280;4989;48.772;9.154;2023-04-25T18:28:18;97875.84;;;11.60;100.00
18850;BME280;4989;48.772;9.154;2023-04-25T18:33:20;97890.09;;;10.89;100.00
18850;BME280;4989;48.772;9.154;2023-04-25T18:38:26;97881.25;;;10.69;100.00
18850;BME280;4989;48.772;9.154;2023-04-25T18:43:32;97887.31;;;10.40;100.00
18850;BME280;4989;48.772;9.154;2023-04-25T18:48:34;97882.63;;;10.04;100.00
18850;BME280;4989;48.772;9.154;2023-04-25T18:53:37;97892.41;;;9.82;100.00
18850;BME280;4989;48.772;9.154;2023-04-25T18:58:39;97902.16;;;9.79;100.00
18850;BME280;4989;48.772;9.154;2023-04-25T19:03:43;97903.81;;;9.93;100.00
18850;BME280;4989;48.772;9.154;2023-04-25T19:08:45;97920.34;;;10.19;100.00
18850;BME280;4989;48.772;9.154;2023-04-25T19:13:48;97917.91;;;10.44;100.00
18850;BME280;4989;48.772;9.154;2023-04-25T19:18:53;97929.00;;;10.86;100.00
18850;BME280;4989;48.772;9.154;2023-04-25T19:23:56;97931.78;;;10.83;100.00
18850;BME280;4989;48.772;9.154;2023-04-25T19:29:09;97927.00;;;10.54;100.00
18850;BME280;4989;48.772;9.154;2023-04-25T19:34:12;97924.44;;;10.11;100.00
18850;BME280;4989;48.772;9.154;2023-04-25T19:39:15;97915.22;;;10.04;100.00
18850;BME280;4989;48.772;9.154;2023-04-25T19:44:17;97933.00;;;10.29;100.00
18850;BME280;4989;48.772;9.154;2023-04-25T19:49:19;97938.84;;;10.27;100.00
18850;BME280;4989;48.772;9.154;2023-04-25T19:54:22;97941.16;;;10.29;100.00
18850;BME280;4989;48.772;9.154;2023-04-25T19:59:24;97944.88;;;10.71;100.00
18850;BME280;4989;48.772;9.154;2023-04-25T20:04:27;97952.09;;;10.78;100.00
18850;BME280;4989;48.772;9.154;2023-04-25T20:09:29;97946.50;;;10.85;100.00
18850;BME280;4989;48.772;9.154;2023-04-25T20:14:31;97956.19;;;10.86;100.00
18850;BME280;4989;48.772;9.154;2023-04-25T20:19:34;97961.59;;;10.53;100.00
18850;BME280;4989;48.772;9.154;2023-04-25T20:24:36;97958.38;;;10.75;100.00
18850;BME280;4989;48.772;9.154;2023-04-25T20:29:39;97962.81;;;10.69;100.00
18850;BME280;4989;48.772;9.154;2023-04-25T20:34:43;97966.00;;;10.64;100.00
18850;BME280;4989;48.772;9.154;2023-04-25T20:39:45;97967.22;;;10.79;100.00
18850;BME280;4989;48.772;9.154;2023-04-25T20:44:47;97971.44;;;10.64;100.00
18850;BME280;4989;48.772;9.154;2023-04-25T20:49:50;97964.84;;;10.25;100.00
18850;BME280;4989;48.772;9.154;2023-04-25T20:54:53;97966.88;;;10.21;100.00
18850;BME280;4989;48.772;9.154;2023-04-25T20:59:55;97967.47;;;10.32;100.00
18850;BME280;4989;48.772;9.154;2023-04-25T21:04:58;97966.81;;;10.44;100.00
18850;BME280;4989;48.772;9.154;2023-04-25T21:10:00;97970.41;;;10.58;100.00
18850;BME280;4989;48.772;9.154;2023-04-25T21:15:03;97973.59;;;10.72;100.00
18850;BME280;4989;48.772;9.154;2023-04-25T21:20:07;97981.31;;;10.74;100.00
18850;BME280;4989;48.772;9.154;2023-04-25T21:25:17;97976.56;;;10.78;100.00
18850;BME280;4989;48.772;9.154;2023-04-25T21:30:25;97978.56;;;10.58;100.00
18850;BME280;4989;48.772;9.154;2023-04-25T21:35:27;97984.56;;;10.85;100.00
18850;BME280;4989;48.772;9.154;2023-04-25T21:40:30;97984.16;;;10.50;98.76
18850;BME280;4989;48.772;9.154;2023-04-25T21:45:32;97987.97;;;10.13;100.00
18850;BME280;4989;48.772;9.154;2023-04-25T21:50:38;97989.72;;;10.23;100.00
18850;BME280;4989;48.772;9.154;2023-04-25T21:55:40;98000.00;;;10.36;100.00
18850;BME280;4989;48.772;9.154;2023-04-25T22:00:43;97991.84;;;10.72;100.00
18850;BME280;4989;48.772;9.154;2023-04-25T22:05:45;97992.03;;;10.81;99.14
18850;BME280;4989;48.772;9.154;2023-04-25T22:10:47;97989.81;;;10.76;99.29
18850;BME280;4989;48.772;9.154;2023-04-25T22:15:50;97994.41;;;10.79;96.81
18850;BME280;4989;48.772;9.154;2023-04-25T22:20:53;97998.78;;;10.93;100.00
18850;BME280;4989;48.772;9.154;2023-04-25T22:25:55;97996.00;;;10.40;95.25
18850;BME280;4989;48.772;9.154;2023-04-25T22:30:57;98003.84;;;9.75;99.38
18850;BME280;4989;48.772;9.154;2023-04-25T22:36:00;98015.31;;;9.12;98.13
18850;BME280;4989;48.772;9.154;2023-04-25T22:41:03;98023.84;;;9.10;100.00
18850;BME280;4989;48.772;9.154;2023-04-25T22:46:14;98022.34;;;9.33;100.00
18850;BME280;4989;48.772;9.154;2023-04-25T22:51:16;98026.34;;;9.25;100.00
18850;BME280;4989;48.772;9.154;2023-04-25T22:56:18;98025.53;;;9.01;100.00
18850;BME280;4989;48.772;9.154;2023-04-25T23:01:20;98033.03;;;8.93;100.00
18850;BME280;4989;48.772;9.154;2023-04-25T23:06:22;98027.41;;;9.31;100.00
18850;BME280;4989;48.772;9.154;2023-04-25T23:11:25;98025.31;;;9.66;100.00
18850;BME280;4989;48.772;9.154;2023-04-25T23:16:27;98033.50;;;10.29;100.00
18850;BME280;4989;48.772;9.154;2023-04-25T23:21:30;98020.66;;;10.49;94.99
18850;BME280;4989;48.772;9.154;2023-04-25T23:26:32;98025.97;;;10.57;94.73
18850;BME280;4989;48.772;9.154;2023-04-25T23:31:34;98030.69;;;10.52;99.27
18850;BME280;4989;48.772;9.154;2023-04-25T23:36:37;98027.03;;;9.99;97.16
18850;BME280;4989;48.772;9.154;2023-04-25T23:41:39;98034.69;;;10.04;98.51
18850;BME280;4989;48.772;9.154;2023-04-25T23:46:42;98036.53;;;10.31;98.99
18850;BME280;4989;48.772;9.154;2023-04-25T23:51:44;98041.44;;;10.60;94.51
18850;BME280;4989;48.772;9.154;2023-04-25T23:56:47;98042.53;;;10.42;91.31
